Погода Луккана неделю

Тверская область, Россия

19 - 25 мая
  • 19мая
    Сегодня
    +7°
    +23°
    Ясно и безоблачно
    ВремяПогодаТемператураВлажностьДавлениеВетер, м/сВероятность осадков
    00:00Ясно и безоблачно+7°C67 %755 мм0.7 м/с2 %
    03:00Ясно и безоблачно+4°C75 %754 мм0.4 м/с2 %
    06:00Ясно и безоблачно+7°C71 %754 мм0.7 м/с2 %
    09:00Ясно и безоблачно+17°C54 %754 мм1.5 м/с2 %
    12:00Ясно и безоблачно+21°C37 %753 мм2.5 м/с2 %
    15:00Ясно и безоблачно+22°C36 %753 мм2.6 м/с2 %
    18:00Ясно и безоблачно+22°C39 %751 мм2.7 м/с2 %
    21:00Ясно и безоблачно+16°C60 %751 мм1.2 м/с2 %
  • 20мая
    Понедельник
    +8°
    +25°
    Практически безоблачно
    ВремяПогодаТемператураВлажностьДавлениеВетер, м/сВероятность осадков
    00:00Ясно и безоблачно+10°C73 %751 мм1.1 м/с2 %
    03:00Ясно и безоблачно+8°C79 %751 мм0.8 м/с2 %
    06:00Ясно и безоблачно+11°C76 %751 мм1.3 м/с2 %
    09:00Ясно и безоблачно+20°C57 %751 мм1.9 м/с2 %
    12:00Практически безоблачно+24°C35 %751 мм3.2 м/с4 %
    15:00Практически безоблачно+24°C36 %750 мм2.8 м/с12 %
    18:00Облачно с прояснениями+20°C72 %751 мм2.4 м/с38 %
    21:00Практически безоблачно+16°C92 %751 мм1.1 м/с13 %
  • 21мая
    Вторник
    +5°
    +22°
    Ясно и безоблачно
    ВремяПогодаТемператураВлажностьДавлениеВетер, м/сВероятность осадков
    00:00Ясно и безоблачно+11°C93 %752 мм0.6 м/с3 %
    03:00Ясно и безоблачно+9°C94 %752 мм0.7 м/с3 %
    06:00Облачно с прояснениями+10°C95 %753 мм0.7 м/с3 %
    09:00Практически безоблачно+17°C75 %754 мм1.2 м/с5 %
    12:00Практически безоблачно+21°C52 %754 мм1.8 м/с7 %
    15:00Ясно и безоблачно+22°C40 %753 мм2.5 м/с6 %
    18:00Ясно и безоблачно+21°C33 %753 мм2.7 м/с2 %
    21:00Ясно и безоблачно+15°C50 %754 мм1.1 м/с2 %
  • 22мая
    Среда
    +4°
    +19°
    Ясно и безоблачно
    ВремяПогодаТемператураВлажностьДавлениеВетер, м/сВероятность осадков
    00:00Ясно и безоблачно+8°C68 %754 мм0.8 м/с2 %
    03:00Ясно и безоблачно+6°C51 %756 мм1.2 м/с2 %
    06:00Ясно и безоблачно+7°C57 %756 мм1.1 м/с2 %
    09:00Ясно и безоблачно+15°C50 %757 мм2.2 м/с2 %
    12:00Ясно и безоблачно+18°C38 %758 мм2.8 м/с2 %
    15:00Ясно и безоблачно+20°C36 %758 мм3.1 м/с2 %
    18:00Ясно и безоблачно+19°C35 %758 мм3.2 м/с2 %
    21:00Ясно и безоблачно+13°C45 %759 мм1.2 м/с2 %
  • 23мая
    Четверг
    +3°
    +18°
    Ясно и безоблачно
    ВремяПогодаТемператураВлажностьДавлениеВетер, м/сВероятность осадков
    00:00Ясно и безоблачно+7°C51 %760 мм1.2 м/с2 %
    03:00Ясно и безоблачно+5°C56 %761 мм0.6 м/с2 %
    06:00Ясно и безоблачно+6°C60 %762 мм1.1 м/с2 %
    09:00Ясно и безоблачно+15°C34 %762 мм2.3 м/с2 %
    12:00Ясно и безоблачно+17°C32 %763 мм2.5 м/с2 %
    15:00Ясно и безоблачно+19°C31 %762 мм2.3 м/с2 %
    18:00Ясно и безоблачно+19°C33 %761 мм2.3 м/с2 %
    21:00Ясно и безоблачно+13°C50 %762 мм0.7 м/с2 %
Мы используем cookies
Соглашаюсь